createdAt,value
2023-01-05T00:01:07.497Z,10.48
2023-01-05T00:03:35.649Z,10.47
2023-01-05T00:06:03.699Z,10.51
2023-01-05T00:08:34.778Z,10.48
2023-01-05T00:11:36.495Z,10.44
2023-01-05T00:14:21.763Z,10.54
2023-01-05T00:17:07.084Z,10.47
2023-01-05T00:19:52.695Z,10.29
2023-01-05T00:22:34.677Z,10.11
2023-01-05T00:25:11.754Z,10.02
2023-01-05T00:27:40.815Z,9.95
2023-01-05T00:30:11.658Z,9.84
2023-01-05T00:32:38.268Z,9.80
2023-01-05T00:35:05.082Z,9.77
2023-01-05T00:37:33.904Z,9.75
2023-01-05T00:40:00.777Z,9.71
2023-01-05T00:42:27.846Z,9.66
2023-01-05T00:44:54.474Z,9.63
2023-01-05T00:47:20.966Z,9.64
2023-01-05T00:49:47.487Z,9.63
2023-01-05T00:52:13.954Z,9.63
2023-01-05T00:54:40.401Z,9.66
2023-01-05T00:57:09.659Z,9.83
2023-01-05T00:59:36.166Z,9.81
2023-01-05T01:02:02.820Z,9.78
2023-01-05T01:04:31.947Z,9.74
2023-01-05T01:06:58.421Z,9.75
2023-01-05T01:09:25.213Z,9.81
2023-01-05T01:11:54.675Z,9.87
2023-01-05T01:14:21.242Z,9.89
2023-01-05T01:16:47.728Z,9.84
2023-01-05T01:19:19.750Z,9.86
2023-01-05T01:21:46.241Z,9.88
2023-01-05T01:24:19.973Z,9.87
2023-01-05T01:26:46.861Z,9.79
2023-01-05T01:29:13.692Z,9.77
2023-01-05T01:31:40.314Z,9.72
2023-01-05T01:34:09.606Z,9.69
2023-01-05T01:36:36.090Z,9.59
2023-01-05T01:39:02.556Z,9.57
2023-01-05T01:41:29.061Z,9.57
2023-01-05T01:43:57.145Z,9.66
2023-01-05T01:46:25.235Z,9.57
2023-01-05T01:48:53.621Z,9.52
2023-01-05T01:51:31.909Z,9.55
2023-01-05T01:54:01.279Z,9.54
2023-01-05T01:56:34.376Z,9.44
2023-01-05T01:59:01.258Z,9.43
2023-01-05T02:01:27.942Z,9.46
2023-01-05T02:03:56.113Z,9.52
2023-01-05T02:06:23.143Z,9.44
2023-01-05T02:08:50.077Z,9.42
2023-01-05T02:11:43.535Z,9.37
2023-01-05T02:14:25.140Z,9.39
2023-01-05T02:16:54.670Z,9.36
2023-01-05T02:19:59.315Z,9.31
2023-01-05T02:22:47.004Z,9.31
2023-01-05T02:25:28.517Z,9.30
2023-01-05T02:28:04.084Z,9.25
2023-01-05T02:30:33.848Z,9.32
2023-01-05T02:33:21.848Z,9.32
2023-01-05T02:36:11.521Z,9.29
2023-01-05T02:38:46.601Z,9.37
2023-01-05T02:41:31.405Z,9.32
2023-01-05T02:43:58.428Z,9.29
2023-01-05T02:46:24.913Z,9.32
2023-01-05T02:48:56.648Z,9.37
2023-01-05T02:51:29.828Z,9.45
2023-01-05T02:54:34.829Z,9.44
2023-01-05T02:57:50.869Z,9.38
2023-01-05T03:00:24.853Z,9.54
2023-01-05T03:02:56.490Z,9.53
2023-01-05T03:05:30.783Z,9.47
2023-01-05T03:08:07.004Z,9.50
2023-01-05T03:11:05.457Z,9.56
2023-01-05T03:13:41.314Z,9.49
2023-01-05T03:16:16.268Z,9.44
2023-01-05T03:19:02.471Z,9.49
2023-01-05T03:21:29.723Z,9.56
2023-01-05T03:24:16.278Z,9.53
2023-01-05T03:27:02.487Z,9.56
2023-01-05T03:29:48.008Z,9.50
2023-01-05T03:32:45.502Z,9.48
2023-01-05T03:35:34.424Z,9.49
2023-01-05T03:38:14.721Z,9.49
2023-01-05T03:40:45.777Z,9.55
2023-01-05T03:43:13.286Z,9.51
2023-01-05T03:45:44.527Z,9.48
2023-01-05T03:48:11.430Z,9.45
2023-01-05T03:50:38.193Z,9.45
2023-01-05T03:53:04.707Z,9.46
2023-01-05T03:55:31.154Z,9.48
2023-01-05T03:57:57.588Z,9.47
2023-01-05T04:00:25.698Z,9.38
2023-01-05T04:02:56.065Z,9.37
2023-01-05T04:05:22.904Z,9.46
2023-01-05T04:07:49.457Z,9.42
2023-01-05T04:10:16.299Z,9.44
2023-01-05T04:12:42.858Z,9.46
2023-01-05T04:15:10.012Z,9.44
2023-01-05T04:17:36.471Z,9.41
2023-01-05T04:20:05.962Z,9.38
2023-01-05T04:22:33.317Z,9.43
2023-01-05T04:24:59.806Z,9.41
2023-01-05T04:27:26.342Z,9.39
2023-01-05T04:29:52.797Z,9.30
2023-01-05T04:32:19.388Z,9.33
2023-01-05T04:34:45.830Z,9.37
2023-01-05T04:37:12.342Z,9.37
2023-01-05T04:39:38.863Z,9.37
2023-01-05T04:42:05.418Z,9.39
2023-01-05T04:44:32.229Z,9.41
2023-01-05T04:46:58.954Z,9.41
2023-01-05T04:49:25.496Z,9.44
2023-01-05T04:51:52.314Z,9.44
2023-01-05T04:54:18.831Z,9.42
2023-01-05T04:56:45.286Z,9.38
2023-01-05T04:59:11.780Z,9.37
2023-01-05T05:01:38.638Z,9.34
2023-01-05T05:04:05.161Z,9.33
2023-01-05T05:06:33.387Z,9.40
2023-01-05T05:08:59.867Z,9.43
2023-01-05T05:11:26.400Z,9.38
2023-01-05T05:13:52.930Z,9.30
2023-01-05T05:16:19.492Z,9.22
2023-01-05T05:18:46.108Z,9.13
2023-01-05T05:21:12.676Z,9.12
2023-01-05T05:23:39.198Z,9.20
2023-01-05T05:26:05.799Z,9.21
2023-01-05T05:28:32.319Z,9.24
2023-01-05T05:30:58.905Z,9.21
2023-01-05T05:33:25.825Z,9.19
2023-01-05T05:35:52.648Z,9.10
2023-01-05T05:38:20.109Z,9.08
2023-01-05T05:40:49.389Z,9.10
2023-01-05T05:43:15.907Z,9.12
2023-01-05T05:45:49.715Z,9.16
2023-01-05T05:48:17.563Z,9.18
2023-01-05T05:50:45.184Z,9.18
2023-01-05T05:53:11.635Z,9.18
2023-01-05T05:55:38.143Z,9.15
2023-01-05T05:58:04.690Z,9.18
2023-01-05T06:00:31.177Z,9.27
2023-01-05T06:02:57.721Z,9.34
2023-01-05T06:05:24.283Z,9.31
2023-01-05T06:07:50.876Z,9.27
2023-01-05T06:10:17.475Z,9.32
2023-01-05T06:12:44.339Z,9.28
2023-01-05T06:15:11.167Z,9.29
2023-01-05T06:17:37.770Z,9.33
2023-01-05T06:20:05.352Z,9.32
2023-01-05T06:22:31.926Z,9.24
2023-01-05T06:24:58.414Z,9.24
2023-01-05T06:27:24.875Z,9.23
2023-01-05T06:29:51.446Z,9.18
2023-01-05T06:32:17.952Z,9.09
2023-01-05T06:34:44.468Z,9.08
2023-01-05T06:37:10.946Z,9.05
2023-01-05T06:39:37.487Z,9.03
2023-01-05T06:42:04.151Z,9.00
2023-01-05T06:44:30.660Z,9.06
2023-01-05T06:46:57.111Z,9.05
2023-01-05T06:49:23.605Z,9.09
2023-01-05T06:51:50.162Z,9.07
2023-01-05T06:54:16.624Z,9.03
2023-01-05T06:56:43.256Z,9.01
2023-01-05T06:59:11.980Z,9.02
2023-01-05T07:01:39.316Z,9.11
2023-01-05T07:04:05.990Z,9.19
2023-01-05T07:06:34.041Z,9.20
2023-01-05T07:09:00.486Z,9.24
2023-01-05T07:11:26.987Z,9.20
2023-01-05T07:13:53.618Z,9.16
2023-01-05T07:16:20.189Z,9.17
2023-01-05T07:18:46.784Z,9.12
2023-01-05T07:21:13.623Z,9.07
2023-01-05T07:23:40.189Z,9.13
2023-01-05T07:26:08.616Z,9.17
2023-01-05T07:28:36.452Z,9.18
2023-01-05T07:31:03.515Z,9.21
2023-01-05T07:33:34.626Z,9.24
2023-01-05T07:36:04.548Z,9.16
2023-01-05T07:38:34.275Z,9.16
2023-01-05T07:41:01.683Z,9.15
2023-01-05T07:43:28.495Z,9.21
2023-01-05T07:46:02.430Z,9.21
2023-01-05T07:48:29.428Z,9.17
2023-01-05T07:51:04.407Z,9.16
2023-01-05T07:53:36.764Z,9.08
2023-01-05T07:56:10.316Z,9.17
2023-01-05T07:58:37.075Z,9.16
2023-01-05T08:01:05.731Z,9.12
2023-01-05T08:03:32.682Z,9.08
2023-01-05T08:06:05.153Z,9.04
2023-01-05T08:08:31.653Z,8.98
2023-01-05T08:11:03.946Z,8.96
2023-01-05T08:13:49.740Z,8.94
2023-01-05T08:16:16.340Z,9.03
2023-01-05T08:18:42.895Z,9.09
2023-01-05T08:21:09.869Z,9.08
2023-01-05T08:23:37.798Z,9.16
2023-01-05T08:26:13.196Z,9.16
2023-01-05T08:28:40.190Z,9.21
2023-01-05T08:31:10.765Z,9.18
2023-01-05T08:33:37.579Z,9.18
2023-01-05T08:36:09.076Z,9.19
2023-01-05T08:38:36.897Z,9.17
2023-01-05T08:41:03.657Z,9.16
2023-01-05T08:43:30.174Z,9.11
2023-01-05T08:45:56.683Z,9.04
2023-01-05T08:48:23.222Z,9.01
2023-01-05T08:50:49.746Z,9.03
2023-01-05T08:53:16.231Z,8.96
2023-01-05T08:55:42.743Z,8.92
2023-01-05T08:58:09.241Z,8.98
2023-01-05T09:00:35.919Z,9.00
2023-01-05T09:03:02.516Z,9.05
2023-01-05T09:05:32.258Z,9.06
2023-01-05T09:07:58.740Z,9.09
2023-01-05T09:10:25.238Z,9.12
2023-01-05T09:12:51.763Z,9.12
2023-01-05T09:15:18.373Z,9.17
2023-01-05T09:17:44.886Z,9.17
2023-01-05T09:20:11.482Z,9.19
2023-01-05T09:22:38.011Z,9.19
2023-01-05T09:25:04.985Z,9.21
2023-01-05T09:27:31.591Z,9.23
2023-01-05T09:29:58.082Z,9.22
2023-01-05T09:32:24.734Z,9.27
2023-01-05T09:34:51.212Z,9.24
2023-01-05T09:37:17.769Z,9.26
2023-01-05T09:39:44.315Z,9.18
2023-01-05T09:42:17.669Z,9.17
2023-01-05T09:44:53.949Z,9.22
2023-01-05T09:47:35.127Z,9.23
2023-01-05T09:50:02.373Z,9.22
2023-01-05T09:52:35.997Z,9.23
2023-01-05T09:55:19.767Z,9.16
2023-01-05T09:57:58.041Z,9.23
2023-01-05T10:00:26.259Z,9.20
2023-01-05T10:04:01.641Z,9.19
2023-01-05T10:06:14.188Z,9.12
2023-01-05T10:08:50.870Z,9.11
2023-01-05T10:11:41.753Z,9.06
2023-01-05T10:14:40.866Z,9.00
2023-01-05T10:17:40.551Z,9.04
2023-01-05T10:20:02.848Z,9.06
2023-01-05T10:22:51.261Z,9.03
2023-01-05T10:25:35.076Z,9.07
2023-01-05T10:28:26.240Z,9.13
2023-01-05T10:31:00.324Z,9.14
2023-01-05T10:33:54.430Z,9.13
2023-01-05T10:37:09.421Z,9.09
2023-01-05T10:39:45.253Z,9.13
2023-01-05T10:42:33.401Z,9.05
2023-01-05T10:45:04.937Z,8.99
2023-01-05T10:47:37.328Z,9.01
2023-01-05T10:50:21.013Z,9.00
2023-01-05T10:52:47.787Z,8.96
2023-01-05T10:55:17.554Z,8.91
2023-01-05T10:57:45.919Z,8.95
2023-01-05T11:00:14.509Z,8.99
2023-01-05T11:02:48.136Z,8.98
2023-01-05T11:05:22.038Z,8.93
2023-01-05T11:07:48.475Z,8.96
2023-01-05T11:10:26.051Z,8.98
2023-01-05T11:13:02.413Z,9.00
2023-01-05T11:15:32.490Z,8.96
2023-01-05T11:17:59.503Z,9.00
2023-01-05T11:20:29.076Z,9.01
2023-01-05T11:22:55.613Z,9.06
2023-01-05T11:25:31.044Z,9.12
2023-01-05T11:28:16.510Z,9.16
2023-01-05T11:31:00.175Z,9.20
2023-01-05T11:33:28.766Z,9.21
2023-01-05T11:35:56.852Z,9.29
2023-01-05T11:38:34.493Z,9.28
2023-01-05T11:41:01.557Z,9.30
2023-01-05T11:43:31.944Z,9.24
2023-01-05T11:46:04.842Z,9.22
2023-01-05T11:48:35.262Z,9.17
2023-01-05T11:51:02.858Z,9.15
2023-01-05T11:53:35.042Z,9.13
2023-01-05T11:56:07.697Z,9.18
2023-01-05T11:58:45.564Z,9.21
2023-01-05T12:01:46.380Z,9.25
2023-01-05T12:04:43.297Z,9.27
2023-01-05T12:07:18.182Z,9.27
2023-01-05T12:10:31.021Z,9.27
2023-01-05T12:13:29.505Z,9.24
2023-01-05T12:16:15.686Z,9.20
2023-01-05T12:18:50.209Z,9.20
2023-01-05T12:21:24.028Z,9.24
2023-01-05T12:24:25.995Z,9.18
2023-01-05T12:27:07.546Z,9.14
2023-01-05T12:36:43.935Z,9.09
2023-01-05T12:39:35.924Z,9.04
2023-01-05T12:42:23.597Z,9.04
2023-01-05T12:44:57.569Z,9.04
2023-01-05T12:47:45.628Z,9.00
2023-01-05T12:50:36.546Z,9.06
2023-01-05T12:53:12.322Z,9.04
2023-01-05T12:55:50.216Z,9.01
2023-01-05T12:58:36.929Z,9.04
2023-01-05T13:01:06.314Z,9.05
2023-01-05T13:03:44.740Z,9.05
2023-01-05T13:06:16.979Z,9.03
2023-01-05T13:09:02.568Z,8.99
2023-01-05T13:11:38.263Z,8.99
2023-01-05T13:14:11.351Z,8.97
2023-01-05T13:16:40.733Z,8.98
2023-01-05T13:19:19.310Z,9.01
2023-01-05T13:21:47.705Z,9.01
2023-01-05T13:24:35.525Z,8.99
2023-01-05T13:27:03.384Z,9.01
2023-01-05T13:29:47.881Z,9.01
2023-01-05T13:32:49.558Z,9.05
2023-01-05T13:36:04.177Z,9.07
2023-01-05T13:38:49.004Z,9.05
2023-01-05T13:41:44.260Z,9.06
2023-01-05T13:44:28.467Z,9.09
2023-01-05T13:47:27.494Z,9.13
2023-01-05T13:50:21.902Z,9.14
2023-01-05T13:53:03.277Z,9.08
2023-01-05T13:55:33.171Z,9.07
2023-01-05T13:58:01.002Z,9.05
2023-01-05T14:00:41.771Z,9.07
2023-01-05T14:03:24.430Z,9.07
2023-01-05T14:05:58.779Z,9.12
2023-01-05T14:08:36.015Z,9.16
2023-01-05T14:11:08.835Z,9.11
2023-01-05T14:13:46.420Z,9.10
2023-01-05T14:16:41.245Z,9.09
2023-01-05T14:19:20.301Z,9.06
2023-01-05T14:21:49.573Z,9.05
2023-01-05T14:24:47.395Z,9.04
2023-01-05T14:27:19.347Z,9.04
2023-01-05T14:29:48.417Z,9.03
2023-01-05T14:32:31.065Z,9.07
2023-01-05T14:35:42.573Z,9.06
2023-01-05T14:38:21.523Z,9.04
2023-01-05T14:40:53.571Z,9.04
2023-01-05T14:43:33.815Z,9.01
2023-01-05T14:46:05.003Z,9.01
2023-01-05T14:49:06.243Z,8.99
2023-01-05T14:51:34.456Z,9.00
2023-01-05T14:54:03.675Z,9.01
2023-01-05T14:56:36.077Z,8.96
2023-01-05T14:59:20.578Z,8.92
2023-01-05T15:01:51.688Z,8.92
2023-01-05T15:04:27.877Z,8.93
2023-01-05T15:07:31.922Z,8.96
2023-01-05T15:10:23.216Z,8.93
2023-01-05T15:13:23.083Z,8.95
2023-01-05T15:16:27.733Z,8.98
2023-01-05T15:19:22.939Z,8.96
2023-01-05T15:22:36.307Z,8.94
2023-01-05T15:25:10.615Z,8.93
2023-01-05T15:27:51.260Z,8.90
2023-01-05T15:31:04.774Z,8.89
2023-01-05T15:34:00.428Z,8.90
2023-01-05T15:36:35.340Z,8.89
2023-01-05T15:39:01.884Z,8.87
2023-01-05T15:41:28.899Z,8.90
2023-01-05T15:43:56.306Z,8.89
2023-01-05T15:46:29.700Z,8.88
2023-01-05T15:48:56.229Z,8.87
2023-01-05T15:51:32.441Z,8.85
2023-01-05T15:54:05.485Z,8.87
2023-01-05T15:56:35.774Z,8.87
2023-01-05T15:59:17.597Z,8.86
2023-01-05T16:01:44.056Z,8.88
2023-01-05T16:04:14.619Z,8.87
2023-01-05T16:06:45.953Z,8.81
2023-01-05T16:09:34.283Z,8.78
2023-01-05T16:12:08.915Z,8.81
2023-01-05T16:14:40.945Z,8.86
2023-01-05T16:17:11.742Z,8.83
2023-01-05T16:19:44.149Z,8.77
2023-01-05T16:22:23.708Z,8.69
2023-01-05T16:24:59.189Z,8.63
2023-01-05T16:27:26.642Z,8.61
2023-01-05T16:29:53.282Z,8.60
2023-01-05T16:32:38.021Z,8.54
2023-01-05T16:35:19.764Z,8.48
2023-01-05T16:38:04.364Z,8.43
2023-01-05T16:40:31.480Z,8.41
2023-01-05T16:42:58.130Z,8.41
2023-01-05T16:45:28.476Z,8.39
2023-01-05T16:47:55.022Z,8.37
2023-01-05T16:50:21.495Z,8.34
2023-01-05T16:52:58.164Z,8.37
2023-01-05T16:55:30.589Z,8.36
2023-01-05T16:57:58.740Z,8.36
2023-01-05T17:00:28.027Z,8.33
2023-01-05T17:02:58.773Z,8.26
2023-01-05T17:05:31.052Z,8.21
2023-01-05T17:08:19.737Z,8.21
2023-01-05T17:10:47.038Z,8.17
2023-01-05T17:13:19.779Z,8.17
2023-01-05T17:15:49.396Z,8.20
2023-01-05T17:18:17.632Z,8.19
2023-01-05T17:20:45.809Z,8.16
2023-01-05T17:23:19.309Z,8.16
2023-01-05T17:25:45.884Z,8.21
2023-01-05T17:30:44.198Z,8.18
2023-01-05T17:33:11.055Z,8.17
2023-01-05T17:35:37.653Z,8.20
2023-01-05T17:38:04.113Z,8.21
2023-01-05T17:40:31.073Z,8.24
2023-01-05T17:42:57.547Z,8.23
2023-01-05T17:45:27.483Z,8.23
2023-01-05T17:47:54.371Z,8.23
2023-01-05T17:50:24.045Z,8.24
2023-01-05T17:52:50.551Z,8.24
2023-01-05T17:55:17.325Z,8.24
2023-01-05T17:57:43.795Z,8.23
2023-01-05T18:00:13.339Z,8.27
2023-01-05T18:02:40.584Z,8.23
2023-01-05T18:05:08.399Z,8.22
2023-01-05T18:07:36.452Z,8.21
2023-01-05T18:10:05.019Z,8.22
2023-01-05T18:12:31.499Z,8.20
2023-01-05T18:14:58.223Z,8.19
2023-01-05T18:17:24.906Z,8.18
2023-01-05T18:19:51.421Z,8.18
2023-01-05T18:22:18.139Z,8.17
2023-01-05T18:24:45.424Z,8.17
2023-01-05T18:27:12.418Z,8.18
2023-01-05T18:29:40.723Z,8.16
2023-01-05T18:32:08.428Z,8.16
2023-01-05T18:34:35.495Z,8.15
2023-01-05T18:37:06.714Z,8.15
2023-01-05T18:39:37.448Z,8.12
2023-01-05T18:42:04.258Z,8.13
2023-01-05T18:44:30.776Z,8.12
2023-01-05T18:46:57.315Z,8.12
2023-01-05T18:49:23.839Z,8.11
2023-01-05T18:51:52.385Z,8.10
2023-01-05T18:54:19.458Z,8.14
2023-01-05T18:56:46.076Z,8.13
2023-01-05T18:59:13.508Z,8.11
2023-01-05T19:01:42.837Z,8.12
2023-01-05T19:04:11.588Z,8.12
2023-01-05T19:06:39.193Z,8.11
2023-01-05T19:09:08.718Z,8.09
2023-01-05T19:11:36.157Z,8.10
2023-01-05T19:14:04.592Z,8.10
2023-01-05T19:16:33.515Z,8.10
2023-01-05T19:19:04.127Z,8.11
2023-01-05T19:21:32.615Z,8.08
2023-01-05T19:24:01.047Z,8.10
2023-01-05T19:26:31.380Z,8.11
2023-01-05T19:29:06.398Z,8.11
2023-01-05T19:31:32.997Z,8.12
2023-01-05T19:33:59.524Z,8.13
2023-01-05T19:36:32.473Z,8.13
2023-01-05T19:39:10.208Z,8.14
2023-01-05T19:41:38.387Z,8.15
2023-01-05T19:44:05.254Z,8.16
2023-01-05T19:46:32.204Z,8.16
2023-01-05T19:49:02.339Z,8.20
2023-01-05T19:51:30.153Z,8.21
2023-01-05T19:54:01.641Z,8.19
2023-01-05T19:56:33.938Z,8.23
2023-01-05T19:59:10.638Z,8.26
2023-01-05T20:01:37.744Z,8.23
2023-01-05T20:04:04.806Z,8.26
2023-01-05T20:06:36.362Z,8.28
2023-01-05T20:09:06.624Z,8.29
2023-01-05T20:11:39.546Z,8.30
2023-01-05T20:14:06.059Z,8.31
2023-01-05T20:16:33.132Z,8.32
2023-01-05T20:19:00.078Z,8.32
2023-01-05T20:21:27.398Z,8.31
2023-01-05T20:23:54.337Z,8.31
2023-01-05T20:26:22.696Z,8.31
2023-01-05T20:28:49.455Z,8.33
2023-01-05T20:31:15.865Z,8.33
2023-01-05T20:33:42.367Z,8.34
2023-01-05T20:36:09.035Z,8.36
2023-01-05T20:38:35.608Z,8.36
2023-01-05T20:41:02.157Z,8.37
2023-01-05T20:43:28.626Z,8.35
2023-01-05T20:45:55.071Z,8.37
2023-01-05T20:48:21.561Z,8.32
2023-01-05T20:50:48.098Z,8.29
2023-01-05T20:53:14.592Z,8.26
2023-01-05T20:55:41.107Z,8.25
2023-01-05T20:58:07.597Z,8.24
2023-01-05T21:00:34.157Z,8.17
2023-01-05T21:03:00.699Z,8.19
2023-01-05T21:05:29.904Z,8.16
2023-01-05T21:07:56.411Z,8.15
2023-01-05T21:10:22.938Z,8.16
2023-01-05T21:12:52.454Z,8.17
2023-01-05T21:15:19.022Z,8.17
2023-01-05T21:17:45.578Z,8.18
2023-01-05T21:20:12.103Z,8.18
2023-01-05T21:22:38.571Z,8.17
2023-01-05T21:25:05.420Z,8.21
2023-01-05T21:27:31.882Z,8.25
2023-01-05T21:29:58.525Z,8.23
2023-01-05T21:32:25.037Z,8.23
2023-01-05T21:34:51.698Z,8.22
2023-01-05T21:37:18.177Z,8.24
2023-01-05T21:39:44.796Z,8.23
2023-01-05T21:42:33.179Z,8.21
2023-01-05T21:44:59.817Z,8.26
2023-01-05T21:47:26.820Z,8.25
2023-01-05T21:49:53.341Z,8.27
2023-01-05T21:52:38.238Z,8.27
2023-01-05T21:55:23.563Z,8.27
2023-01-05T21:57:50.001Z,8.28
2023-01-05T22:00:16.680Z,8.30
2023-01-05T22:02:43.215Z,8.33
2023-01-05T22:05:09.686Z,8.33
2023-01-05T22:07:36.328Z,8.33
2023-01-05T22:10:03.913Z,8.32
2023-01-05T22:12:30.750Z,8.34
2023-01-05T22:14:57.247Z,8.35
2023-01-05T22:17:23.797Z,8.35
2023-01-05T22:19:53.203Z,8.34
2023-01-05T22:22:20.796Z,8.34
2023-01-05T22:24:47.756Z,8.35
2023-01-05T22:27:14.217Z,8.35
2023-01-05T22:29:40.704Z,8.32
2023-01-05T22:32:07.279Z,8.30
2023-01-05T22:34:33.822Z,8.33
2023-01-05T22:37:00.317Z,8.33
2023-01-05T22:39:30.060Z,8.34
2023-01-05T22:41:59.371Z,8.35
2023-01-05T22:44:25.847Z,8.36
2023-01-05T22:46:52.309Z,8.39
2023-01-05T22:49:18.902Z,8.36
2023-01-05T22:51:46.283Z,8.37
2023-01-05T22:54:12.880Z,8.37
2023-01-05T22:56:39.928Z,8.39
2023-01-05T22:59:06.523Z,8.40
2023-01-05T23:01:35.642Z,8.40
2023-01-05T23:04:07.016Z,8.41
2023-01-05T23:06:37.357Z,8.40
2023-01-05T23:09:08.642Z,8.43
2023-01-05T23:11:40.364Z,8.45
2023-01-05T23:14:09.136Z,8.48
2023-01-05T23:16:36.384Z,8.47
2023-01-05T23:19:05.080Z,8.49
2023-01-05T23:21:32.112Z,8.50
2023-01-05T23:23:59.331Z,8.48
2023-01-05T23:26:30.458Z,8.45
2023-01-05T23:28:57.029Z,8.46
2023-01-05T23:31:23.947Z,8.43
2023-01-05T23:33:50.425Z,8.44
2023-01-05T23:36:19.038Z,8.43
2023-01-05T23:38:46.258Z,8.45
2023-01-05T23:41:14.736Z,8.47
2023-01-05T23:43:45.076Z,8.48
2023-01-05T23:46:20.838Z,8.48
2023-01-05T23:48:48.136Z,8.55
2023-01-05T23:51:16.352Z,8.58
2023-01-05T23:53:48.285Z,8.62
2023-01-05T23:56:20.894Z,8.64
2023-01-05T23:58:48.806Z,8.66
